Aktualne dane pomiarowe

Uwaga, wersja testowa! Automatyczne pobieranie danych za pomocą narzędzi lub skryptów to umożliwiających jest zabronione.

Dane meteo z obszaru Polski uzyskane na podstawie depesz SYNOP pobieranych co godzinę z NWS. Najedź myszką na symbol przedstawiony w tabeli, aby uzyskać informacje co do jego znaczenia. Prosimy pamiętać, że to testowa wersja strony, która jeszcze nie jest ukończona. Stworzono również jest krótki FAQ dotyczący korzystania z tej podstrony Anomalie temperatury w chwili obecnej odniesione są do okresu referencyjnego 1951-2016. Okres ten będzie później zmieniony na 1981-2010. Kliknij ikonę aby pobrać plik CSV. Kliknij ikonę aby wygenerować mapę synoptyczną dla danego terminu.

Wybierz Datę:    

        

Zielona Góra (12400)

Dane terminowe dla wybranej stacji. Kliknij datę, aby otrzymać dane z tego terminu dla wszystkich stacji.

TemperaturaZachmurzenieWiatrCiśnienieOpadyPogoda
 Data t td wb tx tn tg rh  Nt Nl Cl Cm Ch ws wd g1 g2 wx mslp ppp ch 24h 12h t ww ww w1 w2  
2019-07-20 23:00:00 17.7 16.9 17.1--- 9515.0wxwxwx6wx-1661016.2 993.5 2.5---wx-w1--
2019-07-20 22:00:00 23.2 12.8 16.7--- 5240.0wxwxwxwxwx3wx--31012.5 990.3 -0.5---wx---
2019-07-20 21:00:00 23.9 12.5 16.9--- 4940.0wx-wx3wx---1012.8 990.6 0.0---------
2019-07-20 20:00:00 24.7 12.6 17.3--- 4740.0wx-wx2wx--21013.1 991.0 0.1---------
2019-07-20 19:00:00 25.3 12.2 17.3--- 4440.0wx-wx1wx--11012.9 990.8 -0.3---------
2019-07-20 18:00:00 26.5 12.9 18.1 28.5 19.8- 4345.0wx-wxwx1wx-611012.6 990.6 -1.1- 0.012wx---
2019-07-20 17:00:00 27.3 12.1 18.1--- 3950.0wx-wx1wx--11012.8 990.9 -1.3---------
2019-07-20 16:00:00 28.1 11.6 18.1--- 3650.0wx-wx1wx--11013.0 991.1 -1.5---------
2019-07-20 15:00:00 28.4 12.3 18.6--- 3740.0wxwxwxwx1wx---1013.6 991.7 -1.1---------
2019-07-20 14:00:00 27.6 12.0 18.1--- 3840.0wxwxwxwx2wx--21014.1 992.2 -0.8---------
2019-07-20 13:00:00 27.0 13.0 18.4--- 4240.0wxwxwxwx3wx-631014.6 992.6 -0.6---------
2019-07-20 12:00:00 26.3 11.2 17.3--- 3940.0wxwxwxwx3wx--31014.8 992.8 -0.6- 0.06------
2019-07-20 11:00:00 26.3 12.7 18.0--- 4330.0wxwxwxwx2wx--21015.1 993.0 -0.4---------
2019-07-20 10:00:00 24.9 14.7 18.4--- 5330.0wxwxwxwx2wx--21015.4 993.2 -0.3---------
2019-07-20 09:00:00 23.9 15.1 18.2--- 5840.0wxwxwxwx1wx--11015.6 993.4 0.0---------
2019-07-20 08:00:00 21.8 15.2 17.5--- 6640.0wxwxwxwx1wx--11015.8 993.4 0.3---------
2019-07-20 07:00:00 21.3 15.6 17.5--- 7030.0wxwxwxwx1wx--11015.9 993.5 0.3---------
2019-07-20 06:00:00 19.8 16.8 17.7 20.2 15.9 14 8330.0wx-wx1wx--11016.0 993.4 0.5 0.3 0.212----- 4.5
2019-07-20 05:00:00 17.6 15.9 16.4--- 908.0wx-wx1wx---1015.8 993.1 0.2---wx---
2019-07-20 04:00:00 16.7 15.6 15.9--- 938.0wx-1wx--11016.0 993.2 0.4---wx---
2019-07-20 03:00:00 15.9 15.3 15.4--- 968.0wx-wx1wx--11015.8 992.9 0.3---wx---
2019-07-20 02:00:00 16.5 15.5 15.8--- 9440.0wxwxwx1wx--11015.7 992.9 0.2---------
2019-07-20 01:00:00 17.4 15.2 15.8--- 8740.0wxwxwx1wx--11015.5 992.8 0.1---------
2019-07-20 00:00:00 17.7 15.1 15.9--- 8550.0wxwxwxwx1wx--11015.3 992.6 0.2- 0.26wx-w1w2--
2019-07-19 23:00:00 18.3 15.4 16.3--- 8350.0wxwxwxwx1wx---1015.4 992.7 0.5---------
2019-07-19 22:00:00 19.1 15.0 16.3--- 7750.0wx-wx2wx--21015.3 992.7 0.6---wx---
2019-07-19 21:00:00 18.2 15.6 16.4--- 8520.0wxwxwx1wx--11015.1 992.4 0.7---wx-w1w2--
2019-07-19 20:00:00 18.8 14.9 16.1--- 7845.0wx-wx1wx--11014.8 992.2 0.9---------
2019-07-19 19:00:00 19.0 13.8 15.6--- 7230.0wxwxwx1wx--11014.7 992.1 1.1---wx-w1w2--
2019-07-19 18:00:00 20.2 14.6 16.5 25.1 18.6- 7030.0wxwxwx3wx--31014.2 991.7 0.6- 0.112wx---
2019-07-19 17:00:00 23.4 12.7 16.8--- 5140.0wxwxwx2wx--21013.5 991.3 0.0---wx---
2019-07-19 16:00:00 24.4 11.7 16.7--- 4535.0wxwxwxwx4wx--41013.1 991.0 -0.5---------
2019-07-19 15:00:00 24.2 13.1 17.3--- 5035.0wxwxwxwxwx3wx--31013.3 991.1 -0.7---------
2019-07-19 14:00:00 23.6 12.9 17.0--- 5135.0wxwxwxwxwx3wx--31013.5 991.3 -0.3---------
2019-07-19 13:00:00 22.9 13.7 17.1--- 5640.0wxwxwxwxwx2wx--21013.8 991.5 0.0---------
2019-07-19 12:00:00 20.4 14.7 16.6--- 7025.0wxwxwxwx2wx--21014.3 991.8 0.6- 0.16wx-w1--
2019-07-19 11:00:00 23.2 12.2 16.5--- 5035.0wxwxwxwx2wx--21013.9 991.6 0.8---wx---
2019-07-19 10:00:00 22.4 10.8 15.5--- 4840.0wxwxwxwx2wx--21013.8 991.5 1.0---wx---
2019-07-19 09:00:00 23.1 11.2 15.9--- 4740.0wxwxwxwx3wx--31013.5 991.2 1.1---wx---
2019-07-19 08:00:00 23.7 10.0 15.6--- 4240.0wxwxwxwxwx4wx--41013.0 990.8 1.0---------
2019-07-19 07:00:00 21.4 10.5 14.9--- 5040.0wxwxwxwxwx2wx--21012.9 990.5 0.9---------
2019-07-19 06:00:00 18.6 11.7 14.3 23.7 16.0 15 6440.0wxwxwxwxwx1wx--11012.7 990.1 0.6- 0.012----- 10.9
2019-07-19 05:00:00 17.6 10.2 13.1--- 6235.0wx-wxwx2wx--21012.4 989.8 0.1---------
2019-07-19 04:00:00 16.0 9.4 12.0--- 6540.0wxwxwxwxwx2wx--21012.4 989.6 -0.2---------
2019-07-19 03:00:00 16.6 8.5 11.8--- 5945.0wxwxwxwxwx2wx--21012.2 989.5 -0.4---------
2019-07-19 02:00:00 17.8 8.4 12.3--- 5445.0wx-wxwx2wx--21012.3 989.7 -0.5---------
2019-07-19 01:00:00 18.3 8.0 12.4--- 5145.0wx-wxwx2wx--21012.4 989.8 -0.3---------
2019-07-19 00:00:00 18.7 8.1 12.6--- 5045.0wx-wxwx2wx--21012.5 989.9 -0.1- 0.06------
1.8 ms

 

Print Friendly, PDF & Email